createdAt,value
2022-11-24T00:00:06.626Z,17.80
2022-11-24T00:01:11.322Z,17.79
2022-11-24T00:02:13.319Z,17.78
2022-11-24T00:03:15.366Z,17.76
2022-11-24T00:04:17.257Z,17.72
2022-11-24T00:05:19.200Z,17.78
2022-11-24T00:06:21.353Z,17.74
2022-11-24T00:07:23.293Z,17.77
2022-11-24T00:08:25.065Z,17.78
2022-11-24T00:09:26.922Z,17.69
2022-11-24T00:10:28.674Z,17.77
2022-11-24T00:11:33.057Z,17.75
2022-11-24T00:12:34.887Z,17.75
2022-11-24T00:13:40.239Z,17.74
2022-11-24T00:14:42.030Z,17.76
2022-11-24T00:15:43.821Z,17.75
2022-11-24T00:16:45.741Z,17.75
2022-11-24T00:17:47.523Z,17.74
2022-11-24T00:18:51.766Z,17.73
2022-11-24T00:19:53.585Z,17.73
2022-11-24T00:20:55.310Z,17.73
2022-11-24T00:21:57.146Z,17.72
2022-11-24T00:22:58.964Z,17.72
2022-11-24T00:24:01.181Z,17.72
2022-11-24T00:25:03.001Z,17.70
2022-11-24T00:26:13.981Z,17.70
2022-11-24T00:27:15.827Z,17.73
2022-11-24T00:28:17.594Z,17.72
2022-11-24T00:29:19.353Z,17.71
2022-11-24T00:30:21.288Z,17.70
2022-11-24T00:31:24.916Z,17.68
2022-11-24T00:32:30.709Z,17.64
2022-11-24T00:33:32.794Z,17.70
2022-11-24T00:34:34.927Z,17.69
2022-11-24T00:35:36.984Z,17.67
2022-11-24T00:36:39.121Z,17.64
2022-11-24T00:37:40.854Z,17.67
2022-11-24T00:38:43.215Z,17.64
2022-11-24T00:39:45.079Z,17.66
2022-11-24T00:40:46.915Z,17.67
2022-11-24T00:41:48.653Z,17.65
2022-11-24T00:42:50.404Z,17.66
2022-11-24T00:43:52.776Z,17.65
2022-11-24T00:44:54.509Z,17.64
2022-11-24T00:45:56.386Z,17.65
2022-11-24T00:46:58.873Z,17.64
2022-11-24T00:48:00.697Z,17.62
2022-11-24T00:49:02.742Z,17.60
2022-11-24T00:50:04.868Z,17.63
2022-11-24T00:51:09.709Z,17.52
2022-11-24T00:52:11.570Z,17.63
2022-11-24T00:53:13.399Z,17.63
2022-11-24T00:54:15.146Z,17.62
2022-11-24T00:55:16.951Z,17.54
2022-11-24T00:56:19.358Z,17.62
2022-11-24T00:57:21.217Z,17.53
2022-11-24T00:58:24.552Z,17.60
2022-11-24T00:59:26.494Z,17.61
2022-11-24T01:00:28.230Z,17.61
2022-11-24T01:01:31.580Z,17.61
2022-11-24T01:02:33.556Z,17.61
2022-11-24T01:03:35.469Z,17.60
2022-11-24T01:04:37.324Z,17.51
2022-11-24T01:05:39.953Z,17.55
2022-11-24T01:06:41.845Z,17.59
2022-11-24T01:07:44.031Z,17.60
2022-11-24T01:08:46.704Z,17.59
2022-11-24T01:09:48.528Z,17.57
2022-11-24T01:10:50.409Z,17.58
2022-11-24T01:12:01.405Z,17.60
2022-11-24T01:13:03.731Z,17.61
2022-11-24T01:14:05.705Z,17.60
2022-11-24T01:15:07.914Z,17.59
2022-11-24T01:16:19.102Z,17.58
2022-11-24T01:17:21.044Z,17.60
2022-11-24T01:18:22.899Z,17.59
2022-11-24T01:19:24.849Z,17.57
2022-11-24T01:20:26.721Z,17.56
2022-11-24T01:21:28.462Z,17.56
2022-11-24T01:22:30.511Z,17.57
2022-11-24T01:23:32.516Z,17.55
2022-11-24T01:24:34.414Z,17.55
2022-11-24T01:25:39.798Z,17.54
2022-11-24T01:26:42.318Z,17.52
2022-11-24T01:27:44.110Z,17.57
2022-11-24T01:28:47.704Z,17.56
2022-11-24T01:29:49.770Z,17.55
2022-11-24T01:31:02.588Z,17.55
2022-11-24T01:32:04.698Z,17.58
2022-11-24T01:33:06.457Z,17.49
2022-11-24T01:34:08.261Z,17.52
2022-11-24T01:35:10.208Z,17.52
2022-11-24T01:36:12.569Z,17.52
2022-11-24T01:37:14.459Z,17.54
2022-11-24T01:38:16.223Z,17.51
2022-11-24T01:39:18.057Z,17.52
2022-11-24T01:40:19.987Z,17.50
2022-11-24T01:41:23.802Z,17.46
2022-11-24T01:42:25.734Z,17.52
2022-11-24T01:43:27.565Z,17.44
2022-11-24T01:44:31.468Z,17.50
2022-11-24T01:45:41.824Z,17.45
2022-11-24T01:46:47.752Z,17.54
2022-11-24T01:47:49.840Z,17.54
2022-11-24T01:49:11.716Z,17.53
2022-11-24T01:50:16.818Z,17.56
2022-11-24T01:51:25.566Z,17.55
2022-11-24T01:52:38.367Z,17.53
2022-11-24T01:53:44.226Z,17.55
2022-11-24T01:54:51.768Z,17.52
2022-11-24T01:55:53.732Z,17.53
2022-11-24T01:57:01.651Z,17.52
2022-11-24T01:58:14.564Z,17.54
2022-11-24T01:59:19.367Z,17.43
2022-11-24T02:00:21.172Z,17.53
2022-11-24T02:01:23.683Z,17.47
2022-11-24T02:02:29.951Z,17.49
2022-11-24T02:03:37.998Z,17.48
2022-11-24T02:04:40.834Z,17.50
2022-11-24T02:06:04.820Z,17.49
2022-11-24T02:07:07.654Z,17.47
2022-11-24T02:08:21.364Z,17.51
2022-11-24T02:09:33.914Z,17.43
2022-11-24T02:10:37.126Z,17.45
2022-11-24T02:11:40.793Z,17.50
2022-11-24T02:12:46.473Z,17.48
2022-11-24T02:13:50.077Z,17.43
2022-11-24T02:14:53.978Z,17.46
2022-11-24T02:15:56.010Z,17.47
2022-11-24T02:16:57.921Z,17.46
2022-11-24T02:17:59.693Z,17.45
2022-11-24T02:19:03.552Z,17.44
2022-11-24T02:20:09.083Z,17.40
2022-11-24T02:21:13.830Z,17.35
2022-11-24T02:22:22.206Z,17.45
2022-11-24T02:23:33.502Z,17.45
2022-11-24T02:24:37.982Z,17.47
2022-11-24T02:25:48.702Z,17.46
2022-11-24T02:26:52.157Z,17.44
2022-11-24T02:27:56.107Z,17.46
2022-11-24T02:28:58.027Z,17.44
2022-11-24T02:29:59.852Z,17.30
2022-11-24T02:31:02.988Z,17.42
2022-11-24T02:32:07.593Z,17.41
2022-11-24T02:33:10.425Z,17.42
2022-11-24T02:34:12.205Z,17.42
2022-11-24T02:35:14.838Z,17.41
2022-11-24T02:36:16.609Z,17.38
2022-11-24T02:37:18.412Z,17.40
2022-11-24T02:38:29.869Z,17.40
2022-11-24T02:39:31.637Z,17.44
2022-11-24T02:40:33.760Z,17.43
2022-11-24T02:41:35.738Z,17.43
2022-11-24T02:42:42.902Z,17.40
2022-11-24T02:43:54.550Z,17.42
2022-11-24T02:45:00.033Z,17.43
2022-11-24T02:46:01.892Z,17.43
2022-11-24T02:47:06.931Z,17.42
2022-11-24T02:48:08.768Z,17.42
2022-11-24T02:49:10.558Z,17.35
2022-11-24T02:50:13.117Z,17.41
2022-11-24T02:51:15.123Z,17.38
2022-11-24T02:52:17.020Z,17.41
2022-11-24T02:53:18.764Z,17.39
2022-11-24T02:54:20.587Z,17.40
2022-11-24T02:55:23.588Z,17.39
2022-11-24T02:56:26.561Z,17.39
2022-11-24T02:57:28.409Z,17.40
2022-11-24T02:58:30.239Z,17.41
2022-11-24T02:59:32.217Z,17.40
2022-11-24T03:00:34.062Z,17.40
2022-11-24T03:01:35.945Z,17.30
2022-11-24T03:02:37.987Z,17.40
2022-11-24T03:03:39.834Z,17.41
2022-11-24T03:04:41.678Z,17.41
2022-11-24T03:05:43.428Z,17.41
2022-11-24T03:06:45.233Z,17.40
2022-11-24T03:07:47.143Z,17.39
2022-11-24T03:08:48.903Z,17.41
2022-11-24T03:09:50.695Z,17.40
2022-11-24T03:10:52.551Z,17.40
2022-11-24T03:11:54.310Z,17.40
2022-11-24T03:12:56.387Z,17.38
2022-11-24T03:13:59.046Z,17.38
2022-11-24T03:15:00.828Z,17.39
2022-11-24T03:16:02.717Z,17.38
2022-11-24T03:17:04.629Z,17.37
2022-11-24T03:18:06.469Z,17.36
2022-11-24T03:19:08.273Z,17.38
2022-11-24T03:20:10.877Z,17.31
2022-11-24T03:21:12.705Z,17.37
2022-11-24T03:22:14.718Z,17.37
2022-11-24T03:23:16.461Z,17.33
2022-11-24T03:24:18.289Z,17.38
2022-11-24T03:25:20.090Z,17.38
2022-11-24T03:26:24.133Z,17.30
2022-11-24T03:27:26.057Z,17.29
2022-11-24T03:28:27.902Z,17.27
2022-11-24T03:29:30.220Z,17.38
2022-11-24T03:30:32.127Z,17.31
2022-11-24T03:31:33.991Z,17.38
2022-11-24T03:32:35.893Z,17.29
2022-11-24T03:33:37.977Z,17.37
2022-11-24T03:34:39.718Z,17.25
2022-11-24T03:35:43.432Z,17.37
2022-11-24T03:36:45.242Z,17.37
2022-11-24T03:37:47.050Z,17.37
2022-11-24T03:38:49.885Z,17.30
2022-11-24T03:39:51.639Z,17.37
2022-11-24T03:40:53.531Z,17.36
2022-11-24T03:41:55.299Z,17.35
2022-11-24T03:42:57.244Z,17.36
2022-11-24T03:43:59.056Z,17.36
2022-11-24T03:45:16.623Z,17.36
2022-11-24T03:46:22.650Z,17.42
2022-11-24T03:47:24.547Z,17.39
2022-11-24T03:48:26.337Z,17.37
2022-11-24T03:49:28.166Z,17.36
2022-11-24T03:50:29.913Z,17.36
2022-11-24T03:51:31.702Z,17.32
2022-11-24T03:52:33.537Z,17.34
2022-11-24T03:53:35.370Z,17.33
2022-11-24T03:54:37.304Z,17.33
2022-11-24T03:55:39.097Z,17.33
2022-11-24T03:56:40.838Z,17.32
2022-11-24T03:57:42.713Z,17.34
2022-11-24T03:58:44.485Z,17.33
2022-11-24T03:59:46.298Z,17.33
2022-11-24T04:00:53.543Z,17.33
2022-11-24T04:01:55.358Z,17.35
2022-11-24T04:02:57.339Z,17.34
2022-11-24T04:03:59.133Z,17.34
2022-11-24T04:05:00.885Z,17.34
2022-11-24T04:06:02.623Z,17.33
2022-11-24T04:07:04.424Z,17.32
2022-11-24T04:08:06.491Z,17.32
2022-11-24T04:09:08.413Z,17.23
2022-11-24T04:10:10.506Z,17.32
2022-11-24T04:11:32.281Z,17.32
2022-11-24T04:12:46.069Z,17.37
2022-11-24T04:13:47.954Z,17.38
2022-11-24T04:14:49.641Z,17.36
2022-11-24T04:15:52.158Z,17.34
2022-11-24T04:16:53.976Z,17.32
2022-11-24T04:17:56.514Z,17.32
2022-11-24T04:18:58.577Z,17.32
2022-11-24T04:20:00.351Z,17.32
2022-11-24T04:21:02.176Z,17.31
2022-11-24T04:22:03.896Z,17.31
2022-11-24T04:23:06.017Z,17.25
2022-11-24T04:24:07.805Z,17.31
2022-11-24T04:25:10.743Z,17.21
2022-11-24T04:26:12.936Z,17.33
2022-11-24T04:27:14.671Z,17.31
2022-11-24T04:28:16.563Z,17.31
2022-11-24T04:29:18.271Z,17.28
2022-11-24T04:30:21.588Z,17.21
2022-11-24T04:31:23.265Z,17.30
2022-11-24T04:32:25.142Z,17.28
2022-11-24T04:33:26.822Z,17.31
2022-11-24T04:34:28.527Z,17.31
2022-11-24T04:35:30.401Z,17.30
2022-11-24T04:36:32.205Z,17.29
2022-11-24T04:37:34.927Z,17.23
2022-11-24T04:39:24.688Z,17.31
2022-11-24T04:39:58.385Z,17.37
2022-11-24T04:41:04.271Z,17.33
2022-11-24T04:42:06.313Z,17.33
2022-11-24T04:43:09.351Z,17.33
2022-11-24T04:44:11.119Z,17.33
2022-11-24T04:45:12.890Z,17.24
2022-11-24T04:46:14.611Z,17.30
2022-11-24T04:47:20.245Z,17.29
2022-11-24T04:48:22.194Z,17.31
2022-11-24T04:49:24.002Z,17.24
2022-11-24T04:50:25.776Z,17.31
2022-11-24T04:51:27.647Z,17.28
2022-11-24T04:52:30.209Z,17.24
2022-11-24T04:53:32.157Z,17.30
2022-11-24T04:54:34.084Z,17.29
2022-11-24T04:55:38.741Z,17.29
2022-11-24T04:56:41.889Z,17.30
2022-11-24T04:57:43.893Z,17.30
2022-11-24T04:58:48.793Z,17.29
2022-11-24T04:59:51.556Z,17.19
2022-11-24T05:00:53.300Z,17.30
2022-11-24T05:01:55.036Z,17.22
2022-11-24T05:02:57.042Z,17.29
2022-11-24T05:03:59.641Z,17.29
2022-11-24T05:05:01.610Z,17.29
2022-11-24T05:06:03.415Z,17.09
2022-11-24T05:07:05.589Z,17.28
2022-11-24T05:08:07.384Z,17.29
2022-11-24T05:09:09.122Z,17.28
2022-11-24T05:10:28.962Z,17.28
2022-11-24T05:11:30.712Z,17.31
2022-11-24T05:12:32.433Z,17.26
2022-11-24T05:13:34.553Z,17.30
2022-11-24T05:14:36.443Z,17.28
2022-11-24T05:15:40.404Z,17.18
2022-11-24T05:16:42.215Z,17.23
2022-11-24T05:17:43.999Z,17.29
2022-11-24T05:18:46.121Z,17.20
2022-11-24T05:19:47.830Z,17.27
2022-11-24T05:20:49.661Z,17.27
2022-11-24T05:21:52.334Z,17.27
2022-11-24T05:22:54.058Z,17.27
2022-11-24T05:23:55.806Z,17.22
2022-11-24T05:24:57.606Z,17.27
2022-11-24T05:26:03.542Z,17.26
2022-11-24T05:27:05.227Z,17.28
2022-11-24T05:28:11.821Z,17.28
2022-11-24T05:29:13.549Z,17.28
2022-11-24T05:30:15.264Z,17.27
2022-11-24T05:31:17.029Z,17.27
2022-11-24T05:32:18.792Z,17.27
2022-11-24T05:33:23.046Z,17.22
2022-11-24T05:34:24.776Z,17.27
2022-11-24T05:35:26.542Z,17.26
2022-11-24T05:36:46.517Z,17.25
2022-11-24T05:37:48.467Z,17.30
2022-11-24T05:38:50.197Z,17.23
2022-11-24T05:39:51.922Z,17.27
2022-11-24T05:40:53.656Z,17.27
2022-11-24T05:41:55.333Z,17.25
2022-11-24T05:42:57.201Z,17.25
2022-11-24T05:43:58.969Z,17.25
2022-11-24T05:45:00.755Z,17.15
2022-11-24T05:46:02.640Z,17.25
2022-11-24T05:47:04.502Z,17.25
2022-11-24T05:48:08.829Z,17.24
2022-11-24T05:49:10.500Z,17.25
2022-11-24T05:50:14.839Z,17.25
2022-11-24T05:51:17.029Z,17.18
2022-11-24T05:52:18.776Z,17.23
2022-11-24T05:53:20.485Z,17.25
2022-11-24T05:54:22.174Z,17.24
2022-11-24T05:55:23.929Z,17.24
2022-11-24T05:56:25.706Z,17.24
2022-11-24T05:57:27.671Z,17.15
2022-11-24T05:58:29.422Z,17.14
2022-11-24T05:59:31.217Z,17.24
2022-11-24T06:00:34.317Z,17.20
2022-11-24T06:01:36.041Z,17.20
2022-11-24T06:02:38.099Z,17.23
2022-11-24T06:03:39.879Z,17.19
2022-11-24T06:04:41.620Z,17.25
2022-11-24T06:05:47.157Z,17.24
2022-11-24T06:06:48.886Z,17.26
2022-11-24T06:07:51.170Z,17.24
2022-11-24T06:08:53.024Z,17.16
2022-11-24T06:09:54.693Z,17.29
2022-11-24T06:11:17.260Z,17.29
2022-11-24T06:12:20.506Z,17.37
2022-11-24T06:13:22.325Z,17.37
2022-11-24T06:14:24.369Z,17.38
2022-11-24T06:15:26.029Z,17.39
2022-11-24T06:16:27.820Z,17.37
2022-11-24T06:17:29.651Z,17.42
2022-11-24T06:18:31.279Z,17.32
2022-11-24T06:19:32.964Z,17.46
2022-11-24T06:20:34.796Z,17.49
2022-11-24T06:21:36.547Z,17.53
2022-11-24T06:22:38.296Z,17.56
2022-11-24T06:23:40.487Z,17.58
2022-11-24T06:24:42.159Z,17.63
2022-11-24T06:25:47.382Z,17.67
2022-11-24T06:26:53.118Z,17.70
2022-11-24T06:27:55.068Z,17.70
2022-11-24T06:28:56.824Z,17.77
2022-11-24T06:29:58.587Z,17.80
2022-11-24T06:31:04.859Z,17.82
2022-11-24T06:32:06.640Z,17.87
2022-11-24T06:33:08.308Z,17.89
2022-11-24T06:34:11.687Z,17.86
2022-11-24T06:35:13.923Z,17.96
2022-11-24T06:36:16.259Z,17.96
2022-11-24T06:37:17.965Z,18.03
2022-11-24T06:38:24.195Z,17.97
2022-11-24T06:39:26.157Z,18.08
2022-11-24T06:40:27.808Z,18.10
2022-11-24T06:41:29.502Z,18.13
2022-11-24T06:42:31.143Z,18.11
2022-11-24T06:43:35.785Z,18.17
2022-11-24T06:44:37.544Z,18.21
2022-11-24T06:45:39.428Z,18.17
2022-11-24T06:46:41.124Z,18.24
2022-11-24T06:47:42.956Z,18.22
2022-11-24T06:48:44.647Z,18.28
2022-11-24T06:49:46.345Z,18.29
2022-11-24T06:50:48.029Z,18.32
2022-11-24T06:51:49.858Z,18.33
2022-11-24T06:52:51.540Z,18.35
2022-11-24T06:53:53.519Z,18.32
2022-11-24T06:54:55.358Z,18.38
2022-11-24T06:56:01.998Z,18.37
2022-11-24T06:57:03.764Z,18.42
2022-11-24T06:58:05.440Z,18.42
2022-11-24T06:59:07.177Z,18.43
2022-11-24T07:00:09.522Z,18.44
2022-11-24T07:01:22.326Z,18.46
2022-11-24T07:02:24.543Z,18.36
2022-11-24T07:03:26.383Z,18.48
2022-11-24T07:04:28.144Z,18.47
2022-11-24T07:05:30.108Z,18.49
2022-11-24T07:06:31.756Z,18.49
2022-11-24T07:07:33.477Z,18.50
2022-11-24T07:08:35.332Z,18.47
2022-11-24T07:09:37.020Z,18.51
2022-11-24T07:10:38.926Z,18.48
2022-11-24T07:11:41.436Z,18.52
2022-11-24T07:12:43.100Z,18.51
2022-11-24T07:13:45.686Z,18.52
2022-11-24T07:14:47.369Z,18.53
2022-11-24T07:15:49.078Z,18.55
2022-11-24T07:16:50.769Z,18.56
2022-11-24T07:17:52.509Z,18.54
2022-11-24T07:18:55.080Z,18.55
2022-11-24T07:19:56.731Z,18.55
2022-11-24T07:20:58.512Z,18.56
2022-11-24T07:22:00.197Z,18.56
2022-11-24T07:23:01.892Z,18.48
2022-11-24T07:24:04.205Z,18.56
2022-11-24T07:25:09.599Z,18.56
2022-11-24T07:26:11.423Z,18.57
2022-11-24T07:27:13.180Z,18.57
2022-11-24T07:28:14.889Z,18.58
2022-11-24T07:29:16.591Z,18.54
2022-11-24T07:30:18.384Z,18.56
2022-11-24T07:31:22.445Z,18.55
2022-11-24T07:32:24.277Z,18.53
2022-11-24T07:33:26.242Z,18.56
2022-11-24T07:34:27.912Z,18.58
2022-11-24T07:35:30.531Z,18.57
2022-11-24T07:36:32.239Z,18.57
2022-11-24T07:37:34.109Z,18.58
2022-11-24T07:38:36.409Z,18.42
2022-11-24T07:39:38.049Z,18.57
2022-11-24T07:40:39.717Z,18.57
2022-11-24T07:41:41.453Z,18.57
2022-11-24T07:42:43.186Z,18.56
2022-11-24T07:43:45.460Z,18.47
2022-11-24T07:44:47.161Z,18.56
2022-11-24T07:45:52.957Z,18.55
2022-11-24T07:46:54.704Z,18.58
2022-11-24T07:47:56.366Z,18.57
2022-11-24T07:48:58.157Z,18.57
2022-11-24T07:49:59.869Z,18.51
2022-11-24T07:51:02.701Z,18.56
2022-11-24T07:52:05.156Z,18.52
2022-11-24T07:53:06.814Z,18.57
2022-11-24T07:54:08.866Z,18.58
2022-11-24T07:55:11.092Z,18.57
2022-11-24T07:56:13.246Z,18.56
2022-11-24T07:57:15.000Z,18.54
2022-11-24T07:58:16.655Z,18.56
2022-11-24T07:59:18.426Z,18.56
2022-11-24T08:00:20.344Z,18.56
2022-11-24T08:01:22.176Z,18.56
2022-11-24T08:02:24.198Z,18.55
2022-11-24T08:03:26.084Z,18.56
2022-11-24T08:04:27.774Z,18.56
2022-11-24T08:05:29.537Z,18.56
2022-11-24T08:06:39.683Z,18.57
2022-11-24T08:07:42.558Z,18.55
2022-11-24T08:08:44.689Z,18.58
2022-11-24T08:09:46.465Z,18.58
2022-11-24T08:10:48.192Z,18.56
2022-11-24T08:11:49.821Z,18.57
2022-11-24T08:12:51.587Z,18.51
2022-11-24T08:13:53.873Z,18.50
2022-11-24T08:14:55.656Z,18.52
2022-11-24T08:15:57.341Z,18.55
2022-11-24T08:16:59.069Z,18.50
2022-11-24T08:18:02.717Z,18.56
2022-11-24T08:19:04.429Z,18.58
2022-11-24T08:20:06.982Z,18.58
2022-11-24T08:21:13.020Z,18.57
2022-11-24T08:22:14.760Z,18.59
2022-11-24T08:23:16.480Z,18.60
2022-11-24T08:24:18.201Z,18.57
2022-11-24T08:25:20.225Z,18.60
2022-11-24T08:26:23.087Z,18.61
2022-11-24T08:27:24.801Z,18.61
2022-11-24T08:28:26.510Z,18.61
2022-11-24T08:29:29.631Z,18.62
2022-11-24T08:30:31.845Z,18.64
2022-11-24T08:31:35.510Z,18.64
2022-11-24T08:32:37.248Z,18.65
2022-11-24T08:33:39.984Z,18.65
2022-11-24T08:34:41.692Z,18.66
2022-11-24T08:35:43.372Z,18.64
2022-11-24T08:36:45.105Z,18.67
2022-11-24T08:37:47.103Z,18.66
2022-11-24T08:38:53.697Z,18.66
2022-11-24T08:39:55.504Z,18.68
2022-11-24T08:41:01.871Z,18.60
2022-11-24T08:42:03.668Z,18.68
2022-11-24T08:43:05.412Z,18.68
2022-11-24T08:44:08.459Z,18.69
2022-11-24T08:45:20.485Z,18.69
2022-11-24T08:46:23.942Z,18.65
2022-11-24T08:47:25.820Z,18.71
2022-11-24T08:48:27.946Z,18.70
2022-11-24T08:49:29.660Z,18.70
2022-11-24T08:50:31.435Z,18.69
2022-11-24T08:51:33.819Z,18.64
2022-11-24T08:52:35.807Z,18.69
2022-11-24T08:53:38.022Z,18.70
2022-11-24T08:54:40.915Z,18.69
2022-11-24T08:55:42.581Z,18.64
2022-11-24T08:56:44.861Z,18.66
2022-11-24T08:57:46.536Z,18.66
2022-11-24T08:58:48.367Z,18.63
2022-11-24T08:59:50.183Z,18.69
2022-11-24T09:00:51.897Z,18.71
2022-11-24T09:01:53.704Z,18.71
2022-11-24T09:02:57.076Z,18.68
2022-11-24T09:03:58.995Z,18.69
2022-11-24T09:05:00.704Z,18.72
2022-11-24T09:06:02.668Z,18.72
2022-11-24T09:07:04.880Z,18.70
2022-11-24T09:08:06.655Z,18.72
2022-11-24T09:09:10.019Z,18.70
2022-11-24T09:10:12.039Z,18.73
2022-11-24T09:11:15.331Z,18.72
2022-11-24T09:12:17.038Z,18.75
2022-11-24T09:13:18.849Z,18.73
2022-11-24T09:14:20.704Z,18.72
2022-11-24T09:15:22.952Z,18.72
2022-11-24T09:16:27.375Z,18.71
2022-11-24T09:17:29.118Z,18.73
2022-11-24T09:18:30.847Z,18.73
2022-11-24T09:19:32.944Z,18.73
2022-11-24T09:20:34.930Z,18.72
2022-11-24T09:21:39.472Z,18.74
2022-11-24T09:22:43.244Z,18.74
2022-11-24T09:23:48.684Z,18.74
2022-11-24T09:24:50.455Z,18.75
2022-11-24T09:25:52.141Z,18.74
2022-11-24T09:26:55.456Z,18.69
2022-11-24T09:27:57.477Z,18.73
2022-11-24T09:29:01.143Z,18.73
2022-11-24T09:30:03.602Z,18.74
2022-11-24T09:31:08.214Z,18.66
2022-11-24T09:32:10.411Z,18.75
2022-11-24T09:33:12.142Z,18.75
2022-11-24T09:34:15.648Z,18.74
2022-11-24T09:35:17.696Z,18.67
2022-11-24T09:36:20.417Z,18.75
2022-11-24T09:37:22.188Z,18.75
2022-11-24T09:38:24.182Z,18.75
2022-11-24T09:39:25.854Z,18.74
2022-11-24T09:40:27.517Z,18.75
2022-11-24T09:41:38.418Z,18.75
2022-11-24T09:43:01.790Z,18.77
2022-11-24T09:44:28.000Z,18.81
2022-11-24T09:46:03.785Z,18.85
2022-11-24T09:47:20.848Z,18.90
2022-11-24T09:48:40.801Z,18.89
2022-11-24T09:49:58.366Z,18.85
2022-11-24T09:51:03.761Z,18.82
2022-11-24T09:52:12.822Z,18.81
2022-11-24T09:53:33.249Z,18.81
2022-11-24T09:54:37.513Z,18.80
2022-11-24T09:55:49.616Z,18.78
2022-11-24T09:56:52.556Z,18.73
2022-11-24T09:58:15.630Z,18.79
2022-11-24T09:59:20.527Z,18.75
2022-11-24T10:00:22.232Z,18.78
2022-11-24T10:01:32.629Z,18.77
2022-11-24T10:02:34.422Z,18.78
2022-11-24T10:03:45.552Z,18.75
2022-11-24T10:04:47.477Z,18.77
2022-11-24T10:05:51.452Z,18.76
2022-11-24T10:07:08.072Z,18.76
2022-11-24T10:08:17.187Z,18.79
2022-11-24T10:09:21.818Z,18.78
2022-11-24T10:10:28.516Z,18.77
2022-11-24T10:11:57.543Z,18.81
2022-11-24T10:13:35.831Z,18.62
2022-11-24T10:15:04.765Z,18.85
2022-11-24T10:16:42.507Z,18.89
2022-11-24T10:18:09.353Z,18.82
2022-11-24T10:19:37.127Z,18.87
2022-11-24T10:20:57.167Z,18.83
2022-11-24T10:22:08.019Z,18.83
2022-11-24T10:23:15.583Z,18.81
2022-11-24T10:24:37.396Z,18.74
2022-11-24T10:25:59.225Z,18.84
2022-11-24T10:27:16.119Z,18.77
2022-11-24T10:28:18.058Z,18.74
2022-11-24T10:29:39.229Z,18.80
2022-11-24T10:30:41.466Z,18.80
2022-11-24T10:31:45.455Z,18.79
2022-11-24T10:32:49.788Z,18.71
2022-11-24T10:33:51.909Z,18.75
2022-11-24T10:34:59.105Z,18.75
2022-11-24T10:36:12.188Z,18.75
2022-11-24T10:37:22.447Z,18.78
2022-11-24T10:38:52.773Z,18.78
2022-11-24T10:40:05.862Z,18.83
2022-11-24T10:41:13.461Z,18.83
2022-11-24T10:42:27.923Z,18.81
2022-11-24T10:43:29.869Z,18.82
2022-11-24T10:44:31.740Z,18.79
2022-11-24T10:45:33.529Z,18.79
2022-11-24T10:46:39.537Z,18.77
2022-11-24T10:47:43.865Z,18.77
2022-11-24T10:48:57.768Z,18.56
2022-11-24T10:50:04.472Z,18.79
2022-11-24T10:51:38.974Z,18.83
2022-11-24T10:52:45.054Z,18.79
2022-11-24T10:53:48.355Z,18.84
2022-11-24T10:55:04.219Z,18.81
2022-11-24T10:56:06.210Z,18.83
2022-11-24T10:57:08.285Z,18.82
2022-11-24T10:58:23.526Z,18.82
2022-11-24T10:59:25.132Z,18.83
2022-11-24T11:00:26.753Z,18.81
2022-11-24T11:01:33.139Z,18.80
2022-11-24T11:02:40.325Z,18.80
2022-11-24T11:03:55.030Z,18.82
2022-11-24T11:04:57.165Z,18.78
2022-11-24T11:06:13.888Z,18.84
2022-11-24T11:07:19.718Z,18.77
2022-11-24T11:08:30.307Z,18.84
2022-11-24T11:09:32.229Z,18.84
2022-11-24T11:10:34.227Z,18.83
2022-11-24T11:11:38.711Z,18.80
2022-11-24T11:12:44.919Z,18.81
2022-11-24T11:14:03.922Z,18.82
2022-11-24T11:15:29.343Z,18.90
2022-11-24T11:16:37.168Z,18.89
2022-11-24T11:17:39.497Z,18.83
2022-11-24T11:18:48.910Z,18.83
2022-11-24T11:19:56.998Z,18.86
2022-11-24T11:21:04.043Z,18.87
2022-11-24T11:22:12.053Z,18.85
2022-11-24T11:23:20.491Z,18.85
2022-11-24T11:24:22.236Z,18.85
2022-11-24T11:25:31.010Z,18.81
2022-11-24T11:26:36.497Z,18.82
2022-11-24T11:27:39.759Z,18.82
2022-11-24T11:28:41.523Z,18.77
2022-11-24T11:31:21.339Z,18.87
2022-11-24T11:34:23.475Z,18.88
2022-11-24T11:35:32.286Z,18.72
2022-11-24T11:36:34.615Z,18.91
2022-11-24T11:37:36.410Z,18.87
2022-11-24T11:38:39.968Z,18.86
2022-11-24T11:39:48.853Z,18.83
2022-11-24T11:40:51.737Z,18.85
2022-11-24T11:42:45.450Z,18.80
2022-11-24T11:43:41.701Z,18.91
2022-11-24T11:45:11.768Z,18.95
2022-11-24T11:46:17.930Z,18.94
2022-11-24T11:47:31.714Z,18.89
2022-11-24T11:48:43.091Z,18.91
2022-11-24T11:49:48.481Z,18.90
2022-11-24T11:52:43.622Z,18.95
2022-11-24T11:53:57.567Z,18.97
2022-11-24T11:55:20.981Z,18.97
2022-11-24T11:56:33.040Z,18.90
2022-11-24T11:57:53.083Z,18.96
2022-11-24T11:59:40.386Z,18.98
2022-11-24T12:00:50.987Z,19.00
2022-11-24T12:02:03.325Z,18.96
2022-11-24T12:03:26.453Z,18.95
2022-11-24T12:04:58.564Z,18.96
2022-11-24T12:06:14.297Z,18.98
2022-11-24T12:07:34.424Z,18.94
2022-11-24T12:10:42.043Z,18.99
2022-11-24T12:12:08.911Z,18.96
2022-11-24T12:13:42.490Z,19.01
2022-11-24T12:15:21.272Z,19.00
2022-11-24T12:16:38.130Z,19.00
2022-11-24T12:17:46.915Z,18.95
2022-11-24T12:19:00.692Z,18.92
2022-11-24T12:20:31.758Z,18.95
2022-11-24T12:21:53.591Z,18.95
2022-11-24T12:23:11.158Z,18.94
2022-11-24T12:24:40.061Z,18.95
2022-11-24T12:25:50.983Z,18.95
2022-11-24T12:26:52.658Z,18.93
2022-11-24T12:28:02.712Z,18.91
2022-11-24T12:29:41.700Z,18.93
2022-11-24T12:31:26.896Z,18.96
2022-11-24T12:32:54.544Z,19.04
2022-11-24T12:34:22.705Z,19.01
2022-11-24T12:35:33.401Z,18.91
2022-11-24T12:37:06.403Z,19.00
2022-11-24T12:38:11.017Z,18.98
2022-11-24T12:39:34.476Z,18.94
2022-11-24T12:40:47.161Z,18.96
2022-11-24T12:42:00.567Z,18.95
2022-11-24T12:43:26.441Z,18.94
2022-11-24T12:44:47.255Z,18.97
2022-11-24T12:46:17.567Z,18.97
2022-11-24T12:47:27.252Z,19.01
2022-11-24T12:48:37.059Z,18.96
2022-11-24T12:50:09.059Z,18.99
2022-11-24T12:51:18.440Z,18.98
2022-11-24T12:52:29.846Z,18.97
2022-11-24T12:53:34.677Z,18.97
2022-11-24T12:54:40.936Z,18.94
2022-11-24T12:55:44.360Z,18.88
2022-11-24T12:57:07.117Z,18.87
2022-11-24T12:58:31.998Z,18.99
2022-11-24T13:00:02.573Z,18.98
2022-11-24T13:01:22.607Z,19.04
2022-11-24T13:02:33.537Z,19.00
2022-11-24T13:03:53.672Z,19.02
2022-11-24T13:04:58.233Z,18.99
2022-11-24T13:06:07.604Z,18.96
2022-11-24T13:07:12.951Z,18.92
2022-11-24T13:08:15.994Z,18.96
2022-11-24T13:09:17.866Z,18.94
2022-11-24T13:11:51.899Z,18.98
2022-11-24T13:13:10.593Z,18.96
2022-11-24T13:14:19.238Z,19.00
2022-11-24T13:15:44.512Z,18.99
2022-11-24T13:18:49.720Z,19.07
2022-11-24T13:19:51.516Z,19.00
2022-11-24T13:20:53.349Z,19.01
2022-11-24T13:22:06.992Z,18.99
2022-11-24T13:23:24.215Z,18.97
2022-11-24T13:24:33.760Z,18.94
2022-11-24T13:25:36.366Z,18.97
2022-11-24T13:26:43.941Z,18.96
2022-11-24T13:27:48.696Z,18.91
2022-11-24T13:29:08.848Z,18.91
2022-11-24T13:30:33.609Z,19.03
2022-11-24T13:31:35.334Z,19.02
2022-11-24T13:32:36.941Z,18.99
2022-11-24T13:33:41.916Z,18.98
2022-11-24T13:34:43.683Z,18.97
2022-11-24T13:36:04.364Z,19.00
2022-11-24T13:37:33.912Z,19.00
2022-11-24T13:39:01.748Z,19.04
2022-11-24T13:40:23.419Z,19.09
2022-11-24T13:41:37.101Z,19.07
2022-11-24T13:43:03.097Z,19.08
2022-11-24T13:44:13.641Z,19.05
2022-11-24T13:45:40.324Z,19.06
2022-11-24T13:47:05.600Z,19.07
2022-11-24T13:48:21.375Z,19.07
2022-11-24T13:49:24.763Z,19.04
2022-11-24T13:50:51.570Z,19.03
2022-11-24T13:51:57.137Z,18.99
2022-11-24T13:53:10.254Z,19.01
2022-11-24T13:54:12.055Z,19.01
2022-11-24T13:55:13.855Z,18.98
2022-11-24T13:56:15.608Z,18.96
2022-11-24T13:57:38.853Z,19.00
2022-11-24T13:58:48.602Z,19.00
2022-11-24T13:59:50.319Z,18.98
2022-11-24T14:01:06.969Z,18.99
2022-11-24T14:02:23.158Z,19.01
2022-11-24T14:04:21.609Z,19.02
2022-11-24T14:05:17.976Z,19.10
2022-11-24T14:06:38.077Z,19.10
2022-11-24T14:07:42.430Z,18.98
2022-11-24T14:08:45.856Z,19.03
2022-11-24T14:09:52.471Z,19.00
2022-11-24T14:10:57.872Z,19.01
2022-11-24T14:12:22.694Z,19.04
2022-11-24T14:13:33.089Z,19.06
2022-11-24T14:14:35.143Z,19.03
2022-11-24T14:15:37.957Z,19.02
2022-11-24T14:16:39.885Z,19.01
2022-11-24T14:17:41.568Z,18.95
2022-11-24T14:18:48.319Z,18.93